Time;durP1;ratioP1;P1;durP2;ratioP2;P2;SDS_P1;SDS_P2;PMS_P1;PMS_P2;Temp;Humidity;BMP_temperature;BMP_pressure;BME280_temperature;BME280_humidity;BME280_pressure;Samples;Min_cycle;Max_cycle;Signal;HPM_P1;HPM_P2
2024/03/08 00:00:12;;;;;;;;;;;16.90;59.20;;;;;;5092696;28;19916;-68
2024/03/08 00:02:41;;;;;;;;;;;16.90;58.50;;;;;;5092267;28;19981;-68
2024/03/08 00:05:08;;;;;;;;;;;16.80;54.70;;;;;;5092474;28;20254;-69
2024/03/08 00:07:37;;;;;;;;;;;17.20;58.50;;;;;;5092707;28;19908;-68
2024/03/08 00:10:03;;;;;;;;;;;16.80;58.90;;;;;;5092487;28;19908;-68
2024/03/08 00:12:29;;;;;;;;;;;16.80;58.80;;;;;;5092289;28;19908;-68
2024/03/08 00:14:54;;;;;;;;;;;16.70;58.60;;;;;;5092886;28;19962;-68
2024/03/08 00:17:23;;;;;;;;;;;16.80;58.90;;;;;;5091771;28;19926;-68
2024/03/08 00:19:49;;;;;;;;;;;16.80;59.20;;;;;;5092292;28;19908;-68
2024/03/08 00:22:15;;;;;;;;;;;16.70;58.90;;;;;;5092345;28;20281;-68
2024/03/08 00:24:41;;;;;;;;;;;16.90;59.10;;;;;;5073860;28;20392;-68
2024/03/08 00:27:08;;;;;;;;;;;16.80;59.00;;;;;;5092392;28;19912;-68
2024/03/08 00:29:34;;;;;;;;;;;16.80;58.90;;;;;;5092160;28;20259;-69
2024/03/08 00:32:00;;;;;;;;;;;16.80;58.50;;;;;;5092070;28;19937;-68
2024/03/08 00:34:25;;;;;;;;;;;16.70;58.90;;;;;;5092047;28;19915;-68
2024/03/08 00:36:52;;;;;;;;;;;16.80;59.10;;;;;;5092010;28;20290;-68
2024/03/08 00:39:19;;;;;;;;;;;16.70;58.70;;;;;;5092256;28;19957;-68
2024/03/08 00:41:45;;;;;;;;;;;16.70;59.30;;;;;;5091890;28;19908;-68
2024/03/08 00:44:10;;;;;;;;;;;16.70;59.00;;;;;;5091940;28;20020;-68
2024/03/08 00:46:38;;;;;;;;;;;16.70;58.90;;;;;;5091756;28;19985;-68
2024/03/08 00:49:04;;;;;;;;;;;16.70;58.90;;;;;;5091909;28;19961;-69
2024/03/08 00:51:30;;;;;;;;;;;16.60;58.90;;;;;;5091695;28;19915;-69
2024/03/08 00:53:56;;;;;;;;;;;16.70;58.50;;;;;;5092039;28;19908;-68
2024/03/08 00:56:21;;;;;;;;;;;16.30;59.10;;;;;;5091978;28;19914;-68
2024/03/08 00:58:47;;;;;;;;;;;16.70;59.00;;;;;;5091890;28;20003;-68
2024/03/08 01:01:15;;;;;;;;;;;16.60;59.20;;;;;;5091585;28;20294;-68
2024/03/08 01:03:44;;;;;;;;;;;16.70;58.70;;;;;;5091291;28;20459;-68
2024/03/08 01:06:11;;;;;;;;;;;16.60;54.80;;;;;;5091577;28;19922;-68
2024/03/08 01:08:38;;;;;;;;;;;16.60;58.90;;;;;;5073985;28;20278;-68
2024/03/08 01:11:04;;;;;;;;;;;16.90;59.20;;;;;;5091485;28;20275;-68
2024/03/08 01:13:30;;;;;;;;;;;16.70;59.00;;;;;;5091807;28;19915;-68
2024/03/08 01:15:56;;;;;;;;;;;16.60;59.20;;;;;;5091485;28;20012;-69
2024/03/08 01:18:22;;;;;;;;;;;16.60;59.30;;;;;;5091766;28;19912;-68
2024/03/08 01:20:48;;;;;;;;;;;16.60;59.00;;;;;;5092301;28;20358;-68
2024/03/08 01:23:14;;;;;;;;;;;16.90;59.30;;;;;;5091697;28;19912;-68
2024/03/08 01:25:41;;;;;;;;;;;16.60;59.00;;;;;;5091572;28;19916;-69
2024/03/08 01:28:07;;;;;;;;;;;16.90;59.10;;;;;;5091698;28;19977;-68
2024/03/08 01:30:34;;;;;;;;;;;16.50;58.90;;;;;;5094128;28;19912;-68
2024/03/08 01:33:00;;;;;;;;;;;16.50;59.20;;;;;;5095245;28;19934;-68
2024/03/08 01:35:26;;;;;;;;;;;16.50;59.20;;;;;;5095228;28;19938;-68
2024/03/08 01:37:52;;;;;;;;;;;16.50;59.00;;;;;;5095481;28;20371;-68
2024/03/08 01:40:18;;;;;;;;;;;16.50;59.30;;;;;;5095342;28;20003;-68
2024/03/08 01:42:44;;;;;;;;;;;16.50;59.40;;;;;;5095141;28;19908;-69
2024/03/08 01:45:10;;;;;;;;;;;16.30;59.30;;;;;;5095133;28;19961;-68
2024/03/08 01:47:35;;;;;;;;;;;16.40;59.40;;;;;;5095033;28;20325;-68
2024/03/08 01:50:03;;;;;;;;;;;16.40;59.40;;;;;;5095519;28;19908;-68
2024/03/08 01:52:29;;;;;;;;;;;16.40;59.30;;;;;;5095195;28;20287;-68
2024/03/08 01:54:54;;;;;;;;;;;16.50;59.60;;;;;;5095216;28;19982;-68
2024/03/08 01:57:20;;;;;;;;;;;16.40;59.70;;;;;;5094893;28;20006;-68
2024/03/08 01:59:46;;;;;;;;;;;16.30;59.80;;;;;;5094794;28;20467;-68
2024/03/08 02:02:13;;;;;;;;;;;16.40;58.90;;;;;;5094620;28;19916;-68
2024/03/08 02:04:39;;;;;;;;;;;16.40;59.60;;;;;;5094713;28;19912;-68
2024/03/08 02:07:05;;;;;;;;;;;16.40;59.30;;;;;;5094610;28;19931;-68
2024/03/08 02:09:31;;;;;;;;;;;16.50;59.50;;;;;;5094906;28;19908;-68
2024/03/08 02:11:57;;;;;;;;;;;16.40;59.30;;;;;;5094554;28;20335;-68
2024/03/08 02:14:23;;;;;;;;;;;16.40;59.70;;;;;;5094803;28;20284;-68
2024/03/08 02:16:49;;;;;;;;;;;16.50;59.50;;;;;;5094561;28;19908;-68
2024/03/08 02:19:14;;;;;;;;;;;16.30;59.20;;;;;;5094525;28;19908;-69
2024/03/08 02:21:40;;;;;;;;;;;16.40;59.40;;;;;;5094480;28;20389;-69
2024/03/08 02:24:05;;;;;;;;;;;16.30;59.40;;;;;;5094266;28;19914;-68
2024/03/08 02:26:31;;;;;;;;;;;16.30;59.00;;;;;;5094345;28;19935;-68
2024/03/08 02:28:56;;;;;;;;;;;16.40;59.40;;;;;;5094633;28;20016;-68
2024/03/08 02:31:22;;;;;;;;;;;16.30;59.20;;;;;;5094328;28;19969;-69
2024/03/08 02:33:47;;;;;;;;;;;16.30;60.00;;;;;;5094397;28;19963;-68
2024/03/08 02:36:13;;;;;;;;;;;16.30;58.90;;;;;;5094982;28;20269;-68
2024/03/08 02:38:40;;;;;;;;;;;16.20;59.20;;;;;;5094218;28;19944;-68
2024/03/08 02:41:06;;;;;;;;;;;16.20;59.40;;;;;;5093806;28;20282;-68
2024/03/08 02:43:31;;;;;;;;;;;16.30;59.30;;;;;;5094281;28;19909;-68
2024/03/08 02:45:57;;;;;;;;;;;16.30;59.50;;;;;;5093875;28;19920;-68
2024/03/08 02:48:22;;;;;;;;;;;18.20;60.40;;;;;;5094155;28;19908;-68
2024/03/08 02:50:50;;;;;;;;;;;16.30;59.50;;;;;;5093960;28;19937;-68
2024/03/08 02:53:16;;;;;;;;;;;16.10;59.50;;;;;;5093772;28;19908;-69
2024/03/08 02:55:41;;;;;;;;;;;15.90;59.10;;;;;;5093771;28;19908;-68
2024/03/08 02:58:10;;;;;;;;;;;16.20;59.40;;;;;;5093653;28;20294;-68
2024/03/08 03:00:36;;;;;;;;;;;16.20;58.60;;;;;;5093647;28;20267;-68
2024/03/08 03:03:02;;;;;;;;;;;16.20;58.60;;;;;;5093294;28;19920;-68
2024/03/08 03:05:29;;;;;;;;;;;16.10;58.90;;;;;;5094065;28;19948;-68
2024/03/08 03:07:55;;;;;;;;;;;16.20;59.80;;;;;;5093666;28;19908;-68
2024/03/08 03:10:21;;;;;;;;;;;16.10;59.20;;;;;;5093387;28;20007;-68
2024/03/08 03:12:48;;;;;;;;;;;15.60;59.20;;;;;;5093464;28;19908;-68
2024/03/08 03:15:14;;;;;;;;;;;16.20;59.40;;;;;;5093401;28;19912;-68
2024/03/08 03:17:42;;;;;;;;;;;16.20;59.00;;;;;;5093660;28;19953;-68
2024/03/08 03:20:12;;;;;;;;;;;16.10;57.30;;;;;;5093306;28;19912;-68
2024/03/08 03:22:38;;;;;;;;;;;16.10;58.50;;;;;;5093198;28;19908;-68
2024/03/08 03:25:06;;;;;;;;;;;16.10;59.40;;;;;;5093112;28;19916;-68
2024/03/08 03:27:32;;;;;;;;;;;16.10;56.60;;;;;;5093178;28;20294;-69
2024/03/08 03:29:58;;;;;;;;;;;16.30;59.10;;;;;;5093355;28;19912;-68
2024/03/08 03:32:29;;;;;;;;;;;16.10;59.40;;;;;;5093006;28;19915;-68
2024/03/08 03:34:55;;;;;;;;;;;16.10;54.70;;;;;;5093037;28;19962;-71
2024/03/08 03:37:20;;;;;;;;;;;16.00;59.10;;;;;;5092943;28;20374;-71
2024/03/08 03:39:49;;;;;;;;;;;16.10;59.20;;;;;;5093054;28;19908;-71
2024/03/08 03:42:17;;;;;;;;;;;16.10;56.00;;;;;;5092888;28;19930;-70
2024/03/08 03:44:47;;;;;;;;;;;15.80;59.60;;;;;;5092834;28;19919;-71
2024/03/08 03:47:12;;;;;;;;;;;16.00;55.00;;;;;;5092864;28;19915;-71
2024/03/08 03:49:42;;;;;;;;;;;16.00;57.30;;;;;;5092241;28;20143;-71
2024/03/08 03:52:08;;;;;;;;;;;16.00;55.20;;;;;;5091826;28;19912;-71
2024/03/08 03:54:33;;;;;;;;;;;16.00;59.40;;;;;;5092565;28;20312;-71
2024/03/08 03:57:00;;;;;;;;;;;16.00;59.00;;;;;;5092598;28;19912;-71
2024/03/08 03:59:26;;;;;;;;;;;16.00;59.20;;;;;;5092788;28;19908;-71
2024/03/08 04:01:53;;;;;;;;;;;15.90;58.80;;;;;;5092759;28;19909;-71
2024/03/08 04:04:18;;;;;;;;;;;15.90;59.40;;;;;;5092447;28;20405;-71
2024/03/08 04:06:44;;;;;;;;;;;16.00;59.10;;;;;;5092355;28;20053;-71
2024/03/08 04:09:11;;;;;;;;;;;15.90;59.10;;;;;;5092689;28;19968;-70
2024/03/08 04:11:36;;;;;;;;;;;15.90;59.10;;;;;;5092378;28;19909;-71
2024/03/08 04:14:02;;;;;;;;;;;15.90;59.30;;;;;;5092401;28;20007;-71
2024/03/08 04:16:27;;;;;;;;;;;15.90;59.40;;;;;;5092152;28;19935;-71
2024/03/08 04:18:53;;;;;;;;;;;15.90;59.60;;;;;;5092175;28;19915;-71
2024/03/08 04:21:21;;;;;;;;;;;15.90;59.40;;;;;;5092436;28;20381;-71
2024/03/08 04:23:46;;;;;;;;;;;15.70;55.80;;;;;;5092041;28;19908;-71
2024/03/08 04:26:12;;;;;;;;;;;15.70;59.00;;;;;;5091992;28;19916;-70
2024/03/08 04:28:39;;;;;;;;;;;15.90;59.10;;;;;;5092007;28;19908;-71
2024/03/08 04:31:06;;;;;;;;;;;15.90;59.00;;;;;;5092842;28;20281;-71
2024/03/08 04:33:32;;;;;;;;;;;15.90;59.10;;;;;;5092186;28;20293;-71
2024/03/08 04:35:58;;;;;;;;;;;15.90;59.20;;;;;;5091923;28;19919;-70
2024/03/08 04:38:24;;;;;;;;;;;15.80;58.70;;;;;;5092285;28;19908;-71
2024/03/08 04:40:50;;;;;;;;;;;15.80;59.30;;;;;;5091990;28;19953;-71
2024/03/08 04:43:18;;;;;;;;;;;15.80;59.10;;;;;;5092043;28;19908;-71
2024/03/08 04:45:44;;;;;;;;;;;15.80;59.30;;;;;;5091868;28;19916;-70
2024/03/08 04:48:09;;;;;;;;;;;15.80;59.20;;;;;;5091947;28;20405;-71
2024/03/08 04:50:35;;;;;;;;;;;15.90;59.30;;;;;;5091828;28;19953;-70
2024/03/08 04:53:00;;;;;;;;;;;15.70;59.10;;;;;;5091787;28;19908;-71
2024/03/08 04:55:26;;;;;;;;;;;15.80;59.40;;;;;;5091847;28;20394;-70
2024/03/08 04:57:52;;;;;;;;;;;15.70;59.30;;;;;;5091698;28;19950;-70
2024/03/08 05:00:19;;;;;;;;;;;15.70;59.30;;;;;;5092029;28;19989;-70
2024/03/08 05:02:44;;;;;;;;;;;15.70;58.70;;;;;;5091315;28;19927;-71
2024/03/08 05:05:12;;;;;;;;;;;15.70;59.40;;;;;;5095838;28;19916;-71
2024/03/08 05:07:41;;;;;;;;;;;15.70;59.50;;;;;;5095904;28;19963;-71
2024/03/08 05:10:06;;;;;;;;;;;15.70;59.60;;;;;;5095952;28;20435;-71
2024/03/08 05:12:32;;;;;;;;;;;16.00;58.40;;;;;;5095815;28;19999;-71
2024/03/08 05:14:58;;;;;;;;;;;15.70;59.60;;;;;;5095913;28;20247;-71
2024/03/08 05:17:23;;;;;;;;;;;15.70;59.90;;;;;;5095929;28;19908;-71
2024/03/08 05:19:49;;;;;;;;;;;15.60;59.90;;;;;;5095611;28;20335;-71
2024/03/08 05:22:15;;;;;;;;;;;15.60;59.80;;;;;;5095515;28;20354;-71
2024/03/08 05:24:40;;;;;;;;;;;15.50;60.10;;;;;;5095358;28;19912;-70
2024/03/08 05:27:06;;;;;;;;;;;15.40;60.00;;;;;;5096237;28;19908;-70
2024/03/08 05:29:31;;;;;;;;;;;15.60;60.10;;;;;;5077315;28;19908;-70
2024/03/08 05:31:57;;;;;;;;;;;15.60;60.30;;;;;;5095509;28;20328;-70
2024/03/08 05:34:24;;;;;;;;;;;15.50;60.20;;;;;;5095641;28;20386;-71
2024/03/08 05:36:50;;;;;;;;;;;15.60;60.00;;;;;;5095246;28;19908;-71
2024/03/08 05:39:16;;;;;;;;;;;15.50;59.90;;;;;;5095236;28;20275;-71
2024/03/08 05:41:42;;;;;;;;;;;15.60;60.80;;;;;;5095055;28;19999;-71
2024/03/08 05:44:08;;;;;;;;;;;16.50;60.80;;;;;;5095106;28;19998;-71
2024/03/08 05:46:34;;;;;;;;;;;15.50;60.70;;;;;;5095233;28;20057;-71
2024/03/08 05:49:00;;;;;;;;;;;15.50;60.60;;;;;;5076934;28;20362;-71
2024/03/08 05:51:28;;;;;;;;;;;15.50;60.60;;;;;;5094985;28;19915;-71
2024/03/08 05:53:56;;;;;;;;;;;15.40;57.00;;;;;;5094872;28;19908;-70
2024/03/08 05:56:25;;;;;;;;;;;15.50;60.50;;;;;;5095416;28;19998;-71
2024/03/08 05:58:50;;;;;;;;;;;15.50;60.40;;;;;;5094807;28;19909;-70
2024/03/08 06:01:16;;;;;;;;;;;15.70;60.70;;;;;;5094899;28;19962;-71
2024/03/08 06:03:45;;;;;;;;;;;15.50;60.30;;;;;;5094497;28;19920;-71
2024/03/08 06:06:14;;;;;;;;;;;15.50;60.60;;;;;;5094678;28;19916;-71
2024/03/08 06:08:39;;;;;;;;;;;15.50;60.40;;;;;;5094670;28;19934;-71
2024/03/08 06:11:05;;;;;;;;;;;15.50;60.60;;;;;;5094451;28;19908;-71
2024/03/08 06:13:31;;;;;;;;;;;15.50;60.50;;;;;;5094249;28;19986;-71
2024/03/08 06:15:57;;;;;;;;;;;15.60;60.70;;;;;;5093310;28;19916;-71
2024/03/08 06:18:22;;;;;;;;;;;15.40;60.70;;;;;;5094382;28;19908;-70
2024/03/08 06:20:48;;;;;;;;;;;15.50;60.60;;;;;;5094232;28;19958;-70
2024/03/08 06:23:17;;;;;;;;;;;15.50;60.60;;;;;;5094409;28;19958;-70
2024/03/08 06:25:43;;;;;;;;;;;15.50;60.60;;;;;;5094733;28;19997;-69
2024/03/08 06:28:09;;;;;;;;;;;15.40;60.50;;;;;;5094390;28;20274;-71
2024/03/08 06:30:34;;;;;;;;;;;15.40;60.30;;;;;;5094323;28;19915;-71
2024/03/08 06:33:00;;;;;;;;;;;15.40;60.30;;;;;;5094216;28;19908;-71
2024/03/08 06:35:25;;;;;;;;;;;15.40;60.50;;;;;;5094513;28;19909;-70
2024/03/08 06:37:51;;;;;;;;;;;15.40;60.00;;;;;;5094361;28;20359;-69
2024/03/08 06:40:16;;;;;;;;;;;15.30;60.40;;;;;;5094279;28;19969;-69
2024/03/08 06:42:42;;;;;;;;;;;15.40;60.50;;;;;;5094254;28;19946;-69
2024/03/08 06:45:09;;;;;;;;;;;15.30;60.30;;;;;;5093968;28;19970;-68
2024/03/08 06:47:35;;;;;;;;;;;15.30;59.20;;;;;;5094438;28;19944;-68
2024/03/08 06:50:01;;;;;;;;;;;15.30;60.80;;;;;;5093954;28;19915;-68
2024/03/08 06:52:26;;;;;;;;;;;15.30;60.60;;;;;;5094612;28;19908;-70
2024/03/08 06:54:52;;;;;;;;;;;15.30;60.30;;;;;;5094322;28;19912;-70
2024/03/08 06:57:20;;;;;;;;;;;15.30;60.90;;;;;;5094146;28;20474;-70
2024/03/08 06:59:45;;;;;;;;;;;15.30;60.90;;;;;;5094048;28;19912;-70
2024/03/08 07:02:11;;;;;;;;;;;15.30;60.00;;;;;;5093503;28;19919;-70
2024/03/08 07:04:37;;;;;;;;;;;15.30;60.30;;;;;;5093884;28;19912;-69
2024/03/08 07:07:12;;;;;;;;;;;15.30;60.50;;;;;;5093911;28;19991;-69
2024/03/08 07:09:37;;;;;;;;;;;15.20;60.30;;;;;;5093890;28;19912;-70
2024/03/08 07:12:03;;;;;;;;;;;15.20;60.10;;;;;;5093688;28;19915;-73
2024/03/08 07:14:30;;;;;;;;;;;15.20;59.80;;;;;;5093672;28;20304;-71
2024/03/08 07:16:56;;;;;;;;;;;15.20;60.00;;;;;;5093564;28;19908;-71
2024/03/08 07:19:22;;;;;;;;;;;13.90;59.50;;;;;;5093524;28;20003;-71
2024/03/08 07:21:47;;;;;;;;;;;15.10;60.80;;;;;;5093972;28;19912;-70
2024/03/08 07:26:57;;;;;;;;;;;15.20;60.00;;;;;;5099987;28;19943;-70
2024/03/08 07:29:23;;;;;;;;;;;15.10;60.30;;;;;;5093270;28;20366;-70
2024/03/08 07:32:01;;;;;;;;;;;15.10;60.40;;;;;;5093249;28;20383;-70
2024/03/08 07:34:27;;;;;;;;;;;15.10;56.90;;;;;;5100028;28;19970;-69
2024/03/08 07:36:53;;;;;;;;;;;15.10;60.30;;;;;;5093190;28;20025;-69
2024/03/08 07:39:18;;;;;;;;;;;15.00;60.00;;;;;;5093072;28;19931;-69
2024/03/08 07:41:44;;;;;;;;;;;15.10;60.10;;;;;;5093081;28;19909;-69
2024/03/08 07:44:10;;;;;;;;;;;15.00;60.20;;;;;;5092859;28;19908;-69
2024/03/08 07:46:36;;;;;;;;;;;15.10;60.30;;;;;;5092861;28;19961;-69
2024/03/08 07:49:02;;;;;;;;;;;15.00;60.10;;;;;;5093464;28;19915;-69
2024/03/08 07:51:28;;;;;;;;;;;15.00;60.10;;;;;;5092893;28;19912;-69
2024/03/08 07:53:54;;;;;;;;;;;15.00;60.20;;;;;;5092924;28;19924;-69
2024/03/08 07:56:21;;;;;;;;;;;15.00;60.10;;;;;;5074502;28;19908;-69
2024/03/08 07:58:47;;;;;;;;;;;15.10;60.30;;;;;;5092877;28;19908;-69
2024/03/08 08:01:18;;;;;;;;;;;15.00;59.80;;;;;;5092595;28;19908;-69
2024/03/08 08:03:45;;;;;;;;;;;15.00;59.90;;;;;;5092334;28;19920;-69
2024/03/08 08:06:15;;;;;;;;;;;15.00;60.50;;;;;;5092468;28;20007;-69
2024/03/08 08:08:44;;;;;;;;;;;14.90;60.10;;;;;;5099250;28;19909;-69
2024/03/08 08:11:14;;;;;;;;;;;15.00;55.90;;;;;;5092427;28;20247;-69
2024/03/08 08:13:43;;;;;;;;;;;15.00;60.40;;;;;;5092625;28;19908;-69
2024/03/08 08:16:08;;;;;;;;;;;15.00;60.40;;;;;;5092356;28;20473;-69
2024/03/08 08:18:35;;;;;;;;;;;15.00;59.80;;;;;;5092907;28;19915;-69
2024/03/08 08:21:00;;;;;;;;;;;15.00;60.30;;;;;;5092407;28;19963;-70
2024/03/08 08:23:26;;;;;;;;;;;14.90;60.30;;;;;;5092263;28;19908;-70
2024/03/08 08:25:52;;;;;;;;;;;14.90;60.40;;;;;;5092173;28;19949;-70
2024/03/08 08:28:18;;;;;;;;;;;14.90;60.40;;;;;;5092444;28;19935;-70
2024/03/08 08:30:44;;;;;;;;;;;15.00;60.80;;;;;;5092371;28;20350;-70
2024/03/08 08:33:10;;;;;;;;;;;15.00;60.50;;;;;;5092067;28;19952;-72
2024/03/08 08:35:37;;;;;;;;;;;15.50;60.90;;;;;;5091879;28;19916;-69
2024/03/08 08:38:03;;;;;;;;;;;14.90;60.60;;;;;;5091395;28;19912;-69
2024/03/08 08:40:30;;;;;;;;;;;15.00;60.40;;;;;;5091859;28;19915;-69
2024/03/08 08:42:57;;;;;;;;;;;15.00;60.70;;;;;;5091856;28;19908;-69
2024/03/08 08:45:23;;;;;;;;;;;15.00;60.70;;;;;;5091754;28;19939;-69
2024/03/08 08:47:49;;;;;;;;;;;15.10;61.00;;;;;;5092399;28;20370;-69
2024/03/08 08:50:16;;;;;;;;;;;15.10;60.80;;;;;;5091953;28;19908;-69
2024/03/08 08:52:44;;;;;;;;;;;15.10;61.20;;;;;;5091735;28;19908;-69
2024/03/08 08:55:14;;;;;;;;;;;15.10;60.90;;;;;;5091887;28;19908;-69
2024/03/08 08:57:43;;;;;;;;;;;15.10;61.20;;;;;;5091938;28;19915;-70
2024/03/08 09:00:14;;;;;;;;;;;15.20;57.30;;;;;;5092007;28;19915;-69
2024/03/08 09:02:40;;;;;;;;;;;15.10;60.40;;;;;;5094800;28;19920;-69
2024/03/08 09:05:07;;;;;;;;;;;15.20;61.00;;;;;;5092106;28;19945;-69
2024/03/08 09:07:33;;;;;;;;;;;15.20;60.60;;;;;;5091805;28;20251;-69
2024/03/08 09:09:59;;;;;;;;;;;15.30;61.00;;;;;;5091858;28;19908;-69
2024/03/08 09:12:25;;;;;;;;;;;15.30;61.40;;;;;;5091812;28;19954;-69
2024/03/08 09:14:50;;;;;;;;;;;15.20;61.20;;;;;;5074249;28;19909;-69
2024/03/08 09:17:20;;;;;;;;;;;15.20;61.00;;;;;;5091905;28;20374;-69
2024/03/08 09:19:47;;;;;;;;;;;15.50;58.10;;;;;;5091668;28;20381;-69
2024/03/08 09:22:13;;;;;;;;;;;15.30;61.30;;;;;;5091593;28;19919;-69
2024/03/08 09:24:38;;;;;;;;;;;15.40;61.00;;;;;;5091705;28;19908;-70
2024/03/08 09:27:04;;;;;;;;;;;15.40;61.20;;;;;;5091697;28;19945;-70
2024/03/08 09:29:29;;;;;;;;;;;15.50;60.50;;;;;;5091648;28;19931;-70
2024/03/08 09:31:55;;;;;;;;;;;15.40;61.20;;;;;;5092385;28;19908;-70
2024/03/08 09:34:21;;;;;;;;;;;15.80;61.00;;;;;;5091623;28;19909;-71
2024/03/08 09:36:46;;;;;;;;;;;15.50;61.20;;;;;;5091564;28;19908;-70
2024/03/08 09:39:16;;;;;;;;;;;15.50;60.90;;;;;;5091547;28;19962;-69
2024/03/08 09:41:43;;;;;;;;;;;15.60;60.40;;;;;;5091543;28;19915;-69
2024/03/08 09:44:09;;;;;;;;;;;16.20;61.30;;;;;;5092083;28;19908;-69
2024/03/08 09:46:34;;;;;;;;;;;15.60;60.70;;;;;;5091512;28;19916;-71
2024/03/08 09:49:01;;;;;;;;;;;15.60;60.60;;;;;;5091429;28;20360;-70
2024/03/08 09:51:28;;;;;;;;;;;15.80;61.20;;;;;;5093975;28;19954;-70
2024/03/08 09:53:53;;;;;;;;;;;15.80;60.70;;;;;;5095230;28;20008;-70
2024/03/08 09:56:21;;;;;;;;;;;16.10;60.70;;;;;;5095535;28;20007;-70
2024/03/08 10:01:31;;;;;;;;;;;15.90;59.90;;;;;;5101350;28;19968;-70
2024/03/08 10:03:57;;;;;;;;;;;15.60;60.40;;;;;;5094810;28;19927;-69
2024/03/08 10:06:23;;;;;;;;;;;15.90;61.00;;;;;;5094873;28;19917;-69
2024/03/08 10:08:51;;;;;;;;;;;16.00;60.90;;;;;;5094799;28;19991;-70
2024/03/08 10:11:16;;;;;;;;;;;16.00;60.40;;;;;;5094720;28;20414;-70
2024/03/08 10:13:42;;;;;;;;;;;15.90;60.10;;;;;;5094773;28;20006;-70
2024/03/08 10:16:08;;;;;;;;;;;16.10;60.30;;;;;;5094727;28;19912;-70
2024/03/08 10:18:33;;;;;;;;;;;16.20;60.20;;;;;;5094665;28;20003;-70
2024/03/08 10:21:03;;;;;;;;;;;16.20;60.80;;;;;;5094594;28;19908;-70
2024/03/08 10:23:30;;;;;;;;;;;16.30;55.90;;;;;;5094707;28;19933;-70
2024/03/08 10:25:58;;;;;;;;;;;16.40;60.30;;;;;;5094481;28;19927;-70
2024/03/08 10:28:24;;;;;;;;;;;16.40;60.00;;;;;;5094495;28;19908;-70
2024/03/08 10:30:50;;;;;;;;;;;16.50;59.90;;;;;;5094895;28;19908;-70
2024/03/08 10:33:15;;;;;;;;;;;16.60;60.00;;;;;;5094506;28;20282;-69
2024/03/08 10:35:41;;;;;;;;;;;16.50;59.50;;;;;;5094629;28;19916;-70
2024/03/08 10:38:09;;;;;;;;;;;16.60;59.70;;;;;;5094260;28;19912;-70
2024/03/08 10:40:36;;;;;;;;;;;16.70;59.30;;;;;;5094181;28;20350;-70
2024/03/08 10:43:04;;;;;;;;;;;16.70;59.60;;;;;;5094237;28;20313;-70
2024/03/08 10:45:30;;;;;;;;;;;16.90;59.50;;;;;;5094074;28;19920;-70
2024/03/08 10:48:16;;;;;;;;;;;16.80;59.70;;;;;;5094267;28;20289;-70
2024/03/08 10:50:45;;;;;;;;;;;16.90;59.30;;;;;;5052232;28;19914;-70
2024/03/08 10:53:11;;;;;;;;;;;16.90;59.40;;;;;;5093416;28;19908;-69
2024/03/08 10:55:36;;;;;;;;;;;17.00;59.60;;;;;;5093389;28;19915;-70
2024/03/08 10:58:02;;;;;;;;;;;17.00;59.10;;;;;;5075187;28;19908;-70
2024/03/08 11:00:29;;;;;;;;;;;17.20;58.80;;;;;;5093673;28;20289;-69
2024/03/08 11:02:54;;;;;;;;;;;17.20;58.50;;;;;;5092790;28;19921;-69
2024/03/08 11:05:40;;;;;;;;;;;17.20;59.20;;;;;;5092973;28;19923;-70
2024/03/08 11:08:26;;;;;;;;;;;16.70;58.70;;;;;;5090996;28;19915;-70
2024/03/08 11:10:55;;;;;;;;;;;17.30;58.80;;;;;;5092594;28;19908;-70
2024/03/08 11:13:37;;;;;;;;;;;17.40;54.50;;;;;;5093281;28;19914;-69
2024/03/08 11:16:05;;;;;;;;;;;17.40;54.90;;;;;;5092434;28;19987;-69
2024/03/08 11:18:50;;;;;;;;;;;17.60;58.20;;;;;;5091899;28;19982;-70
2024/03/08 11:21:17;;;;;;;;;;;17.90;58.60;;;;;;5093231;28;20358;-71
2024/03/08 11:23:43;;;;;;;;;;;17.70;58.40;;;;;;5075072;28;19908;-69
2024/03/08 11:26:19;;;;;;;;;;;17.60;58.70;;;;;;5093243;28;19916;-69
2024/03/08 11:28:44;;;;;;;;;;;17.50;53.90;;;;;;5093331;28;20046;-69
2024/03/08 11:31:10;;;;;;;;;;;17.80;58.30;;;;;;5093240;28;19970;-69
2024/03/08 11:33:36;;;;;;;;;;;17.80;58.50;;;;;;5093059;28;19908;-69
2024/03/08 11:36:17;;;;;;;;;;;17.80;58.00;;;;;;5093300;28;19908;-69
2024/03/08 11:38:49;;;;;;;;;;;17.90;57.90;;;;;;5093131;28;19997;-70
2024/03/08 11:41:17;;;;;;;;;;;16.40;56.90;;;;;;5093247;28;19930;-70
2024/03/08 11:43:44;;;;;;;;;;;18.10;57.90;;;;;;5092807;28;19918;-70
2024/03/08 11:46:10;;;;;;;;;;;18.10;57.90;;;;;;5092741;28;20066;-70
2024/03/08 11:48:35;;;;;;;;;;;18.10;57.60;;;;;;5074583;28;19953;-70
2024/03/08 11:51:01;;;;;;;;;;;18.40;56.80;;;;;;5092995;28;19912;-70
2024/03/08 11:53:27;;;;;;;;;;;18.20;57.30;;;;;;5093209;28;19908;-70
2024/03/08 11:55:53;;;;;;;;;;;18.30;57.10;;;;;;5092902;28;19916;-70
2024/03/08 11:58:19;;;;;;;;;;;18.30;56.80;;;;;;5092531;28;19920;-70
2024/03/08 12:00:46;;;;;;;;;;;18.40;56.70;;;;;;5092769;28;20282;-70
2024/03/08 12:03:12;;;;;;;;;;;18.50;56.00;;;;;;5092288;28;19930;-70
2024/03/08 12:05:38;;;;;;;;;;;18.50;56.20;;;;;;5092689;28;20278;-70
2024/03/08 12:08:12;;;;;;;;;;;18.50;55.80;;;;;;5092374;28;19919;-70
2024/03/08 12:10:37;;;;;;;;;;;18.60;54.30;;;;;;5099186;28;19911;-71
2024/03/08 12:13:04;;;;;;;;;;;18.70;55.60;;;;;;5091571;28;19919;-70
2024/03/08 12:15:32;;;;;;;;;;;18.90;55.60;;;;;;5092133;28;19991;-70
2024/03/08 12:17:58;;;;;;;;;;;18.70;55.40;;;;;;5092285;28;19912;-71
2024/03/08 12:20:25;;;;;;;;;;;18.70;55.30;;;;;;5092068;28;19908;-71
2024/03/08 12:22:58;;;;;;;;;;;18.80;55.20;;;;;;5092649;28;20297;-70
2024/03/08 12:25:42;;;;;;;;;;;18.90;55.10;;;;;;5091820;28;20365;-70
2024/03/08 12:28:10;;;;;;;;;;;18.80;51.20;;;;;;5091846;28;19956;-70
2024/03/08 12:30:45;;;;;;;;;;;18.90;55.40;;;;;;5092001;28;19999;-70
2024/03/08 12:33:12;;;;;;;;;;;19.00;54.50;;;;;;5092038;28;19934;-70
2024/03/08 12:35:38;;;;;;;;;;;18.90;55.10;;;;;;5091950;28;20006;-70
2024/03/08 12:38:06;;;;;;;;;;;19.00;55.00;;;;;;5092209;28;19914;-70
2024/03/08 12:40:34;;;;;;;;;;;19.00;54.80;;;;;;5092104;28;19908;-70
2024/03/08 12:43:01;;;;;;;;;;;19.10;55.00;;;;;;5092064;28;20413;-70
2024/03/08 12:45:27;;;;;;;;;;;19.20;55.00;;;;;;5091791;28;19919;-70
2024/03/08 12:47:53;;;;;;;;;;;19.20;54.70;;;;;;5091733;28;20007;-71
2024/03/08 12:50:19;;;;;;;;;;;19.20;54.30;;;;;;5092085;28;19909;-70
2024/03/08 12:52:45;;;;;;;;;;;19.20;54.60;;;;;;5091898;28;19908;-70
2024/03/08 12:55:11;;;;;;;;;;;19.30;54.40;;;;;;5091826;28;20361;-70
2024/03/08 12:57:37;;;;;;;;;;;19.50;54.10;;;;;;5091822;28;20355;-70
2024/03/08 13:00:04;;;;;;;;;;;19.50;54.10;;;;;;5091860;28;19954;-70
2024/03/08 13:02:30;;;;;;;;;;;19.50;53.50;;;;;;5091727;28;20057;-70
2024/03/08 13:04:57;;;;;;;;;;;19.40;54.00;;;;;;5091725;28;19908;-70
2024/03/08 13:07:24;;;;;;;;;;;19.50;54.20;;;;;;5091944;28;19908;-70
2024/03/08 13:09:49;;;;;;;;;;;19.60;53.70;;;;;;5092472;28;20097;-70
2024/03/08 13:12:15;;;;;;;;;;;19.60;53.90;;;;;;5091716;28;20396;-70
2024/03/08 13:14:43;;;;;;;;;;;19.50;53.20;;;;;;5091747;28;19914;-70
2024/03/08 13:17:10;;;;;;;;;;;19.60;54.00;;;;;;5091855;28;19943;-70
2024/03/08 13:19:38;;;;;;;;;;;19.70;53.70;;;;;;5091648;28;19908;-71
2024/03/08 13:22:07;;;;;;;;;;;19.80;53.20;;;;;;5091761;28;19994;-70
2024/03/08 13:24:33;;;;;;;;;;;19.60;52.80;;;;;;5092882;28;19912;-71
2024/03/08 13:26:59;;;;;;;;;;;19.70;53.20;;;;;;5095665;28;20238;-71
2024/03/08 13:29:25;;;;;;;;;;;19.80;53.60;;;;;;5095729;28;19908;-71
2024/03/08 13:31:51;;;;;;;;;;;19.70;52.90;;;;;;5095675;28;19908;-71
2024/03/08 13:34:17;;;;;;;;;;;19.80;53.20;;;;;;5095558;28;20328;-69
2024/03/08 13:36:44;;;;;;;;;;;19.90;53.50;;;;;;5095428;28;19909;-69
2024/03/08 13:39:15;;;;;;;;;;;19.80;53.00;;;;;;5095994;28;19951;-69
2024/03/08 13:41:44;;;;;;;;;;;19.80;51.90;;;;;;5095507;28;19998;-70
2024/03/08 13:44:10;;;;;;;;;;;19.80;51.70;;;;;;5095416;28;20000;-69
2024/03/08 13:46:36;;;;;;;;;;;19.90;53.20;;;;;;5095525;28;20022;-69
2024/03/08 13:49:10;;;;;;;;;;;19.90;52.90;;;;;;5095247;28;19915;-69
2024/03/08 13:51:38;;;;;;;;;;;20.00;49.00;;;;;;5095610;28;19908;-70
2024/03/08 13:54:07;;;;;;;;;;;20.00;52.80;;;;;;5095109;28;19908;-69
2024/03/08 13:56:32;;;;;;;;;;;20.00;53.30;;;;;;5095295;28;19915;-69
2024/03/08 13:58:58;;;;;;;;;;;20.00;52.90;;;;;;5094939;28;19912;-69
2024/03/08 14:01:25;;;;;;;;;;;19.80;52.70;;;;;;5095203;28;19912;-69
2024/03/08 14:03:50;;;;;;;;;;;19.80;53.10;;;;;;5094862;28;19927;-69
2024/03/08 14:06:16;;;;;;;;;;;20.10;52.60;;;;;;5095229;28;19916;-69
2024/03/08 14:08:41;;;;;;;;;;;20.00;52.90;;;;;;5094821;28;20313;-70
2024/03/08 14:11:12;;;;;;;;;;;20.00;53.10;;;;;;5094665;28;19912;-70
2024/03/08 14:13:47;;;;;;;;;;;20.00;52.70;;;;;;5101595;28;19927;-70
2024/03/08 14:16:13;;;;;;;;;;;20.00;48.90;;;;;;5095025;28;20446;-70
2024/03/08 14:18:39;;;;;;;;;;;20.10;52.90;;;;;;5094655;28;19961;-70